sensor_id;sensor_type;location;lat;lon;timestamp;pressure;altitude;pressure_sealevel;temperature;humidity
53715;BME280;39608;55.630;37.864;2023-01-30T00:04:29;98638.47;;;-1.37;67.19
53715;BME280;39608;55.630;37.864;2023-01-30T00:09:31;98622.97;;;-1.40;67.69
53715;BME280;39608;55.630;37.864;2023-01-30T00:14:34;98610.72;;;-1.41;67.47
53715;BME280;39608;55.630;37.864;2023-01-30T00:19:36;98609.00;;;-1.47;68.33
53715;BME280;39608;55.630;37.864;2023-01-30T00:24:38;98619.63;;;-1.47;67.77
53715;BME280;39608;55.630;37.864;2023-01-30T00:29:41;98609.84;;;-1.47;67.61
53715;BME280;39608;55.630;37.864;2023-01-30T00:34:43;98599.09;;;-1.52;68.40
53715;BME280;39608;55.630;37.864;2023-01-30T00:39:45;98589.25;;;-1.51;67.92
53715;BME280;39608;55.630;37.864;2023-01-30T00:44:48;98582.66;;;-1.49;68.35
53715;BME280;39608;55.630;37.864;2023-01-30T00:50:10;98566.94;;;-1.50;68.28
53715;BME280;39608;55.630;37.864;2023-01-30T00:55:12;98565.47;;;-1.58;68.37
53715;BME280;39608;55.630;37.864;2023-01-30T01:00:16;98553.78;;;-1.57;68.74
53715;BME280;39608;55.630;37.864;2023-01-30T01:05:20;98551.13;;;-1.57;68.29
53715;BME280;39608;55.630;37.864;2023-01-30T01:10:22;98540.44;;;-1.62;68.29
53715;BME280;39608;55.630;37.864;2023-01-30T01:15:26;98535.91;;;-1.62;68.35
53715;BME280;39608;55.630;37.864;2023-01-30T01:20:28;98534.03;;;-1.61;68.49
53715;BME280;39608;55.630;37.864;2023-01-30T01:25:30;98526.56;;;-1.64;69.11
53715;BME280;39608;55.630;37.864;2023-01-30T01:30:33;98520.19;;;-1.63;68.56
53715;BME280;39608;55.630;37.864;2023-01-30T01:35:39;98505.91;;;-1.74;69.13
53715;BME280;39608;55.630;37.864;2023-01-30T01:40:44;98506.81;;;-1.68;69.05
53715;BME280;39608;55.630;37.864;2023-01-30T01:46:09;98481.66;;;-1.78;68.89
53715;BME280;39608;55.630;37.864;2023-01-30T01:51:17;98479.94;;;-1.72;68.68
53715;BME280;39608;55.630;37.864;2023-01-30T01:56:22;98486.84;;;-1.71;68.71
53715;BME280;39608;55.630;37.864;2023-01-30T02:01:26;98474.19;;;-1.64;69.10
53715;BME280;39608;55.630;37.864;2023-01-30T02:06:30;98458.97;;;-1.68;69.05
53715;BME280;39608;55.630;37.864;2023-01-30T02:11:36;98444.88;;;-1.69;69.43
53715;BME280;39608;55.630;37.864;2023-01-30T02:16:43;98450.50;;;-1.65;68.95
53715;BME280;39608;55.630;37.864;2023-01-30T02:27:35;98440.38;;;-1.68;68.59
53715;BME280;39608;55.630;37.864;2023-01-30T02:32:48;98431.59;;;-1.69;68.68
53715;BME280;39608;55.630;37.864;2023-01-30T02:38:06;98434.31;;;-1.64;68.83
53715;BME280;39608;55.630;37.864;2023-01-30T02:43:18;98425.22;;;-1.68;68.72
53715;BME280;39608;55.630;37.864;2023-01-30T02:48:28;98423.94;;;-1.65;69.07
53715;BME280;39608;55.630;37.864;2023-01-30T02:53:31;98416.78;;;-1.65;68.76
53715;BME280;39608;55.630;37.864;2023-01-30T02:58:36;98410.38;;;-1.64;68.87
53715;BME280;39608;55.630;37.864;2023-01-30T03:03:54;98403.28;;;-1.58;68.98
53715;BME280;39608;55.630;37.864;2023-01-30T03:09:06;98402.25;;;-1.57;69.03
53715;BME280;39608;55.630;37.864;2023-01-30T03:14:21;98387.84;;;-1.61;69.27
53715;BME280;39608;55.630;37.864;2023-01-30T03:19:31;98380.19;;;-1.58;69.11
53715;BME280;39608;55.630;37.864;2023-01-30T03:24:33;98380.69;;;-1.61;68.66
53715;BME280;39608;55.630;37.864;2023-01-30T03:29:35;98376.16;;;-1.60;69.09
53715;BME280;39608;55.630;37.864;2023-01-30T03:34:39;98365.63;;;-1.55;69.26
53715;BME280;39608;55.630;37.864;2023-01-30T03:39:41;98354.72;;;-1.53;69.08
53715;BME280;39608;55.630;37.864;2023-01-30T03:44:43;98336.63;;;-1.57;68.46
53715;BME280;39608;55.630;37.864;2023-01-30T03:49:47;98335.56;;;-1.56;68.93
53715;BME280;39608;55.630;37.864;2023-01-30T03:54:49;98332.84;;;-1.61;69.01
53715;BME280;39608;55.630;37.864;2023-01-30T03:59:51;98323.50;;;-1.63;69.12
53715;BME280;39608;55.630;37.864;2023-01-30T04:04:54;98310.75;;;-1.61;68.71
53715;BME280;39608;55.630;37.864;2023-01-30T04:09:56;98301.91;;;-1.67;69.20
53715;BME280;39608;55.630;37.864;2023-01-30T04:14:58;98301.09;;;-1.67;69.44
53715;BME280;39608;55.630;37.864;2023-01-30T04:20:01;98289.19;;;-1.65;69.15
53715;BME280;39608;55.630;37.864;2023-01-30T04:25:04;98287.41;;;-1.59;69.20
53715;BME280;39608;55.630;37.864;2023-01-30T04:30:08;98273.88;;;-1.58;68.67
53715;BME280;39608;55.630;37.864;2023-01-30T04:35:11;98276.53;;;-1.58;69.30
53715;BME280;39608;55.630;37.864;2023-01-30T04:40:14;98279.94;;;-1.62;69.28
53715;BME280;39608;55.630;37.864;2023-01-30T04:45:16;98275.16;;;-1.60;69.01
53715;BME280;39608;55.630;37.864;2023-01-30T04:50:19;98269.84;;;-1.60;68.64
53715;BME280;39608;55.630;37.864;2023-01-30T04:55:21;98256.53;;;-1.60;68.54
53715;BME280;39608;55.630;37.864;2023-01-30T05:00:24;98263.31;;;-1.52;68.69
53715;BME280;39608;55.630;37.864;2023-01-30T05:05:27;98260.69;;;-1.47;68.90
53715;BME280;39608;55.630;37.864;2023-01-30T05:10:29;98240.97;;;-1.51;68.54
53715;BME280;39608;55.630;37.864;2023-01-30T05:15:31;98215.44;;;-1.52;68.89
53715;BME280;39608;55.630;37.864;2023-01-30T05:20:35;98217.09;;;-1.46;68.85
53715;BME280;39608;55.630;37.864;2023-01-30T05:25:37;98224.56;;;-1.43;68.08
53715;BME280;39608;55.630;37.864;2023-01-30T05:30:39;98213.69;;;-1.42;68.46
53715;BME280;39608;55.630;37.864;2023-01-30T05:35:46;98192.41;;;-1.42;68.30
53715;BME280;39608;55.630;37.864;2023-01-30T05:40:56;98185.97;;;-1.24;67.88
53715;BME280;39608;55.630;37.864;2023-01-30T05:45:59;98180.47;;;-1.39;67.93
53715;BME280;39608;55.630;37.864;2023-01-30T05:51:03;98169.31;;;-1.41;68.04
53715;BME280;39608;55.630;37.864;2023-01-30T05:56:06;98178.31;;;-1.42;67.76
53715;BME280;39608;55.630;37.864;2023-01-30T06:01:11;98149.59;;;-1.45;68.26
53715;BME280;39608;55.630;37.864;2023-01-30T06:06:15;98159.47;;;-1.41;68.18
53715;BME280;39608;55.630;37.864;2023-01-30T06:11:17;98136.28;;;-1.45;68.20
53715;BME280;39608;55.630;37.864;2023-01-30T06:16:19;98145.91;;;-1.39;68.31
53715;BME280;39608;55.630;37.864;2023-01-30T06:21:23;98147.81;;;-1.34;67.80
53715;BME280;39608;55.630;37.864;2023-01-30T06:26:25;98143.34;;;-1.29;68.35
53715;BME280;39608;55.630;37.864;2023-01-30T06:31:27;98138.59;;;-1.27;67.44
53715;BME280;39608;55.630;37.864;2023-01-30T06:36:30;98137.56;;;-1.21;67.45
53715;BME280;39608;55.630;37.864;2023-01-30T06:41:33;98146.56;;;-1.27;68.20
53715;BME280;39608;55.630;37.864;2023-01-30T06:46:35;98139.63;;;-1.28;67.46
53715;BME280;39608;55.630;37.864;2023-01-30T06:51:39;98138.09;;;-1.24;67.59
53715;BME280;39608;55.630;37.864;2023-01-30T06:56:41;98112.78;;;-1.26;67.60
53715;BME280;39608;55.630;37.864;2023-01-30T07:01:43;98115.16;;;-1.30;67.49
53715;BME280;39608;55.630;37.864;2023-01-30T07:06:46;98121.03;;;-1.28;67.46
53715;BME280;39608;55.630;37.864;2023-01-30T07:11:49;98118.88;;;-1.31;67.86
53715;BME280;39608;55.630;37.864;2023-01-30T07:16:51;98116.53;;;-1.27;67.74
53715;BME280;39608;55.630;37.864;2023-01-30T07:21:54;98115.00;;;-1.18;67.39
53715;BME280;39608;55.630;37.864;2023-01-30T07:26:58;98111.53;;;-1.18;67.38
53715;BME280;39608;55.630;37.864;2023-01-30T07:32:00;98106.16;;;-1.24;67.81
53715;BME280;39608;55.630;37.864;2023-01-30T07:37:04;98103.31;;;-1.17;67.43
53715;BME280;39608;55.630;37.864;2023-01-30T07:42:06;98099.28;;;-1.19;67.61
53715;BME280;39608;55.630;37.864;2023-01-30T07:47:08;98091.63;;;-1.16;67.66
53715;BME280;39608;55.630;37.864;2023-01-30T07:52:11;98077.81;;;-1.13;67.72
53715;BME280;39608;55.630;37.864;2023-01-30T07:57:13;98074.69;;;-1.05;67.97
53715;BME280;39608;55.630;37.864;2023-01-30T08:02:15;98070.41;;;-1.06;67.30
53715;BME280;39608;55.630;37.864;2023-01-30T08:07:18;98061.91;;;-1.02;67.38
53715;BME280;39608;55.630;37.864;2023-01-30T08:12:20;98063.56;;;-0.96;67.47
53715;BME280;39608;55.630;37.864;2023-01-30T08:17:22;98055.34;;;-0.90;67.76
53715;BME280;39608;55.630;37.864;2023-01-30T08:22:27;98037.25;;;-0.93;67.13
53715;BME280;39608;55.630;37.864;2023-01-30T08:27:29;98034.56;;;-0.93;67.64
53715;BME280;39608;55.630;37.864;2023-01-30T08:32:31;98048.75;;;-0.82;67.00
53715;BME280;39608;55.630;37.864;2023-01-30T08:37:35;98017.56;;;-0.92;67.57
53715;BME280;39608;55.630;37.864;2023-01-30T08:42:37;98025.59;;;-0.81;67.44
53715;BME280;39608;55.630;37.864;2023-01-30T08:47:39;98015.03;;;-0.71;66.90
53715;BME280;39608;55.630;37.864;2023-01-30T08:52:42;97992.34;;;-0.79;67.41
53715;BME280;39608;55.630;37.864;2023-01-30T08:57:44;98006.75;;;-0.75;67.24
53715;BME280;39608;55.630;37.864;2023-01-30T09:02:46;98005.72;;;-0.68;67.01
53715;BME280;39608;55.630;37.864;2023-01-30T09:07:50;97976.75;;;-0.60;67.58
53715;BME280;39608;55.630;37.864;2023-01-30T09:12:52;97989.50;;;-0.62;67.00
53715;BME280;39608;55.630;37.864;2023-01-30T09:17:54;97969.00;;;-0.66;66.96
53715;BME280;39608;55.630;37.864;2023-01-30T09:22:57;97967.94;;;-0.60;67.44
53715;BME280;39608;55.630;37.864;2023-01-30T09:27:59;97964.78;;;-0.57;66.96
53715;BME280;39608;55.630;37.864;2023-01-30T09:33:01;97950.13;;;-0.55;67.15
53715;BME280;39608;55.630;37.864;2023-01-30T09:38:05;97934.16;;;-0.49;66.86
53715;BME280;39608;55.630;37.864;2023-01-30T09:43:21;97935.53;;;-0.37;66.95
53715;BME280;39608;55.630;37.864;2023-01-30T09:48:30;97929.94;;;-0.40;66.90
53715;BME280;39608;55.630;37.864;2023-01-30T09:53:45;97908.09;;;-0.47;67.67
53715;BME280;39608;55.630;37.864;2023-01-30T09:58:53;97903.84;;;-0.43;67.39
53715;BME280;39608;55.630;37.864;2023-01-30T10:04:05;97884.13;;;-0.42;67.38
53715;BME280;39608;55.630;37.864;2023-01-30T10:09:15;97874.28;;;-0.31;67.15
53715;BME280;39608;55.630;37.864;2023-01-30T10:14:54;97880.44;;;-0.26;67.20
53715;BME280;39608;55.630;37.864;2023-01-30T10:20:28;97886.28;;;-0.19;67.03
53715;BME280;39608;55.630;37.864;2023-01-30T10:25:39;97884.44;;;-0.23;67.22
53715;BME280;39608;55.630;37.864;2023-01-30T10:30:45;97846.59;;;-0.25;67.23
53715;BME280;39608;55.630;37.864;2023-01-30T10:35:56;97862.34;;;-0.13;66.98
53715;BME280;39608;55.630;37.864;2023-01-30T10:41:06;97850.63;;;-0.12;66.97
53715;BME280;39608;55.630;37.864;2023-01-30T10:46:20;97835.16;;;-0.05;66.71
53715;BME280;39608;55.630;37.864;2023-01-30T10:51:38;97844.19;;;0.04;66.46
53715;BME280;39608;55.630;37.864;2023-01-30T10:56:46;97827.97;;;0.06;66.33
53715;BME280;39608;55.630;37.864;2023-01-30T11:01:58;97828.47;;;0.08;66.27
53715;BME280;39608;55.630;37.864;2023-01-30T11:07:03;97805.56;;;0.07;66.29
53715;BME280;39608;55.630;37.864;2023-01-30T11:12:07;97818.88;;;0.07;66.58
53715;BME280;39608;55.630;37.864;2023-01-30T11:17:15;97789.31;;;0.03;66.14
53715;BME280;39608;55.630;37.864;2023-01-30T11:22:17;97791.72;;;-0.01;66.72
53715;BME280;39608;55.630;37.864;2023-01-30T11:27:25;97793.31;;;-0.05;66.84
53715;BME280;39608;55.630;37.864;2023-01-30T11:32:28;97799.19;;;-0.08;67.15
53715;BME280;39608;55.630;37.864;2023-01-30T11:37:32;97790.41;;;-0.13;67.14
53715;BME280;39608;55.630;37.864;2023-01-30T11:42:43;97756.31;;;-0.32;68.01
53715;BME280;39608;55.630;37.864;2023-01-30T11:47:49;97784.78;;;-0.17;67.80
53715;BME280;39608;55.630;37.864;2023-01-30T11:52:52;97773.88;;;-0.21;68.00
53715;BME280;39608;55.630;37.864;2023-01-30T11:57:57;97764.81;;;-0.14;68.02
53715;BME280;39608;55.630;37.864;2023-01-30T12:03:04;97769.59;;;-0.06;67.87
53715;BME280;39608;55.630;37.864;2023-01-30T12:08:12;97753.34;;;-0.05;68.06
53715;BME280;39608;55.630;37.864;2023-01-30T12:13:20;97756.28;;;-0.01;68.10
53715;BME280;39608;55.630;37.864;2023-01-30T12:18:29;97743.75;;;-0.01;68.30
53715;BME280;39608;55.630;37.864;2023-01-30T12:23:37;97721.63;;;-0.01;68.09
53715;BME280;39608;55.630;37.864;2023-01-30T12:28:46;97742.94;;;0.04;68.26
53715;BME280;39608;55.630;37.864;2023-01-30T12:33:50;97716.84;;;-0.14;68.11
53715;BME280;39608;55.630;37.864;2023-01-30T12:39:12;97717.66;;;0.02;68.07
53715;BME280;39608;55.630;37.864;2023-01-30T12:44:30;97722.66;;;0.08;67.96
53715;BME280;39608;55.630;37.864;2023-01-30T12:49:48;97698.69;;;0.08;67.89
53715;BME280;39608;55.630;37.864;2023-01-30T12:54:58;97710.94;;;0.14;67.60
53715;BME280;39608;55.630;37.864;2023-01-30T13:00:23;97693.88;;;0.15;67.69
53715;BME280;39608;55.630;37.864;2023-01-30T13:05:36;97695.47;;;0.16;67.82
53715;BME280;39608;55.630;37.864;2023-01-30T13:10:47;97680.56;;;0.10;68.07
53715;BME280;39608;55.630;37.864;2023-01-30T13:15:58;97680.81;;;0.14;68.33
53715;BME280;39608;55.630;37.864;2023-01-30T13:21:07;97680.81;;;0.14;68.27
53715;BME280;39608;55.630;37.864;2023-01-30T13:26:15;97680.81;;;0.14;68.35
53715;BME280;39608;55.630;37.864;2023-01-30T13:31:23;97669.34;;;0.13;67.83
53715;BME280;39608;55.630;37.864;2023-01-30T13:36:33;97661.63;;;0.17;67.98
53715;BME280;39608;55.630;37.864;2023-01-30T13:41:41;97660.25;;;0.20;67.81
53715;BME280;39608;55.630;37.864;2023-01-30T13:46:46;97654.09;;;0.29;67.59
53715;BME280;39608;55.630;37.864;2023-01-30T13:51:51;97629.38;;;0.19;67.25
53715;BME280;39608;55.630;37.864;2023-01-30T13:57:00;97655.66;;;0.41;67.09
53715;BME280;39608;55.630;37.864;2023-01-30T14:02:19;97661.50;;;0.48;67.22
53715;BME280;39608;55.630;37.864;2023-01-30T14:07:52;97651.59;;;0.48;67.12
53715;BME280;39608;55.630;37.864;2023-01-30T14:12:54;97634.56;;;0.39;67.08
53715;BME280;39608;55.630;37.864;2023-01-30T14:18:00;97639.06;;;0.49;67.01
53715;BME280;39608;55.630;37.864;2023-01-30T14:23:18;97628.66;;;0.53;66.70
53715;BME280;39608;55.630;37.864;2023-01-30T14:28:48;97636.34;;;0.59;66.57
53715;BME280;39608;55.630;37.864;2023-01-30T14:33:51;97632.63;;;0.55;66.51
53715;BME280;39608;55.630;37.864;2023-01-30T14:39:30;97619.38;;;0.45;66.31
53715;BME280;39608;55.630;37.864;2023-01-30T14:49:56;97629.69;;;0.57;66.21
53715;BME280;39608;55.630;37.864;2023-01-30T14:54:59;97625.16;;;0.57;66.11
53715;BME280;39608;55.630;37.864;2023-01-30T15:00:12;97614.75;;;0.61;65.90
53715;BME280;39608;55.630;37.864;2023-01-30T15:05:19;97609.47;;;0.50;65.58
53715;BME280;39608;55.630;37.864;2023-01-30T15:10:38;97630.19;;;0.64;65.67
53715;BME280;39608;55.630;37.864;2023-01-30T15:15:48;97616.84;;;0.64;65.19
53715;BME280;39608;55.630;37.864;2023-01-30T15:21:15;97623.47;;;0.72;65.33
53715;BME280;39608;55.630;37.864;2023-01-30T15:26:32;97605.34;;;0.68;65.23
53715;BME280;39608;55.630;37.864;2023-01-30T15:31:36;97610.94;;;0.67;64.98
53715;BME280;39608;55.630;37.864;2023-01-30T15:36:40;97615.22;;;0.68;64.76
53715;BME280;39608;55.630;37.864;2023-01-30T15:41:42;97615.50;;;0.66;64.71
53715;BME280;39608;55.630;37.864;2023-01-30T15:46:50;97588.63;;;0.58;64.25
53715;BME280;39608;55.630;37.864;2023-01-30T15:52:01;97600.00;;;0.68;64.80
53715;BME280;39608;55.630;37.864;2023-01-30T15:57:05;97595.78;;;0.62;64.12
53715;BME280;39608;55.630;37.864;2023-01-30T16:02:15;97573.97;;;0.55;64.51
53715;BME280;39608;55.630;37.864;2023-01-30T16:07:24;97599.19;;;0.73;63.72
53715;BME280;39608;55.630;37.864;2023-01-30T16:12:28;97581.59;;;0.67;63.73
53715;BME280;39608;55.630;37.864;2023-01-30T16:17:30;97571.00;;;0.62;63.62
53715;BME280;39608;55.630;37.864;2023-01-30T16:22:34;97563.75;;;0.67;63.47
53715;BME280;39608;55.630;37.864;2023-01-30T16:27:37;97585.31;;;0.71;63.30
53715;BME280;39608;55.630;37.864;2023-01-30T16:32:40;97580.53;;;0.68;62.92
53715;BME280;39608;55.630;37.864;2023-01-30T16:37:44;97586.91;;;0.72;62.91
53715;BME280;39608;55.630;37.864;2023-01-30T16:42:54;97590.63;;;0.76;62.95
53715;BME280;39608;55.630;37.864;2023-01-30T16:48:21;97573.50;;;0.82;63.16
53715;BME280;39608;55.630;37.864;2023-01-30T16:53:29;97577.53;;;0.80;63.01
53715;BME280;39608;55.630;37.864;2023-01-30T16:58:33;97582.38;;;0.73;62.50
53715;BME280;39608;55.630;37.864;2023-01-30T17:03:41;97576.78;;;0.74;62.24
53715;BME280;39608;55.630;37.864;2023-01-30T17:08:49;97559.66;;;0.75;62.32
53715;BME280;39608;55.630;37.864;2023-01-30T17:14:13;97543.78;;;0.60;62.04
53715;BME280;39608;55.630;37.864;2023-01-30T17:19:17;97562.94;;;0.67;61.93
53715;BME280;39608;55.630;37.864;2023-01-30T17:24:21;97564.53;;;0.68;61.98
53715;BME280;39608;55.630;37.864;2023-01-30T17:29:24;97547.31;;;0.50;61.72
53715;BME280;39608;55.630;37.864;2023-01-30T17:34:27;97568.28;;;0.67;61.96
53715;BME280;39608;55.630;37.864;2023-01-30T17:39:31;97565.59;;;0.67;62.03
53715;BME280;39608;55.630;37.864;2023-01-30T17:44:33;97552.34;;;0.57;61.67
53715;BME280;39608;55.630;37.864;2023-01-30T17:49:36;97571.50;;;0.64;61.94
53715;BME280;39608;55.630;37.864;2023-01-30T17:54:39;97565.09;;;0.65;61.92
53715;BME280;39608;55.630;37.864;2023-01-30T17:59:41;97581.66;;;0.62;61.88
53715;BME280;39608;55.630;37.864;2023-01-30T18:04:43;97567.50;;;0.61;61.62
53715;BME280;39608;55.630;37.864;2023-01-30T18:09:47;97587.28;;;0.60;61.75
53715;BME280;39608;55.630;37.864;2023-01-30T18:14:50;97580.06;;;0.61;61.87
53715;BME280;39608;55.630;37.864;2023-01-30T18:19:55;97575.28;;;0.58;61.97
53715;BME280;39608;55.630;37.864;2023-01-30T18:24:58;97579.53;;;0.59;61.77
53715;BME280;39608;55.630;37.864;2023-01-30T18:30:00;97586.19;;;0.61;61.68
53715;BME280;39608;55.630;37.864;2023-01-30T18:35:05;97568.31;;;0.62;61.86
53715;BME280;39608;55.630;37.864;2023-01-30T18:40:10;97576.03;;;0.63;61.65
53715;BME280;39608;55.630;37.864;2023-01-30T18:45:14;97579.00;;;0.62;61.42
53715;BME280;39608;55.630;37.864;2023-01-30T18:50:16;97581.66;;;0.62;61.70
53715;BME280;39608;55.630;37.864;2023-01-30T18:55:20;97587.28;;;0.60;61.67
53715;BME280;39608;55.630;37.864;2023-01-30T19:00:25;97584.59;;;0.60;61.42
53715;BME280;39608;55.630;37.864;2023-01-30T19:05:27;97585.41;;;0.56;61.37
53715;BME280;39608;55.630;37.864;2023-01-30T19:10:30;97595.00;;;0.62;61.32
53715;BME280;39608;55.630;37.864;2023-01-30T19:15:34;97586.25;;;0.56;61.66
53715;BME280;39608;55.630;37.864;2023-01-30T19:20:36;97580.13;;;0.50;61.38
53715;BME280;39608;55.630;37.864;2023-01-30T19:25:40;97575.84;;;0.55;61.70
53715;BME280;39608;55.630;37.864;2023-01-30T19:30:42;97577.47;;;0.50;61.45
53715;BME280;39608;55.630;37.864;2023-01-30T19:35:44;97575.34;;;0.47;61.81
53715;BME280;39608;55.630;37.864;2023-01-30T19:40:48;97571.41;;;0.40;62.34
53715;BME280;39608;55.630;37.864;2023-01-30T19:45:56;97564.75;;;0.37;62.30
53715;BME280;39608;55.630;37.864;2023-01-30T19:50:58;97577.09;;;0.23;63.06
53715;BME280;39608;55.630;37.864;2023-01-30T19:56:04;97570.75;;;0.08;63.18
53715;BME280;39608;55.630;37.864;2023-01-30T20:01:07;97567.09;;;-0.06;64.23
53715;BME280;39608;55.630;37.864;2023-01-30T20:06:12;97569.28;;;-0.13;64.59
53715;BME280;39608;55.630;37.864;2023-01-30T20:11:18;97561.63;;;-0.30;64.93
53715;BME280;39608;55.630;37.864;2023-01-30T20:16:23;97569.03;;;-0.22;65.24
53715;BME280;39608;55.630;37.864;2023-01-30T20:21:29;97579.69;;;-0.22;65.54
53715;BME280;39608;55.630;37.864;2023-01-30T20:26:34;97586.91;;;-0.28;65.79
53715;BME280;39608;55.630;37.864;2023-01-30T20:31:39;97586.38;;;-0.30;65.45
53715;BME280;39608;55.630;37.864;2023-01-30T20:36:41;97587.97;;;-0.34;65.61
53715;BME280;39608;55.630;37.864;2023-01-30T20:41:44;97586.66;;;-0.37;66.39
53715;BME280;39608;55.630;37.864;2023-01-30T20:46:46;97586.41;;;-0.40;65.88
53715;BME280;39608;55.630;37.864;2023-01-30T20:51:50;97558.22;;;-0.52;66.34
53715;BME280;39608;55.630;37.864;2023-01-30T20:56:55;97575.25;;;-0.47;66.33
53715;BME280;39608;55.630;37.864;2023-01-30T21:01:57;97570.19;;;-0.49;66.58
53715;BME280;39608;55.630;37.864;2023-01-30T21:06:59;97577.66;;;-0.56;66.91
53715;BME280;39608;55.630;37.864;2023-01-30T21:12:02;97574.75;;;-0.60;66.84
53715;BME280;39608;55.630;37.864;2023-01-30T21:17:04;97573.16;;;-0.71;67.32
53715;BME280;39608;55.630;37.864;2023-01-30T21:22:07;97577.16;;;-0.68;66.98
53715;BME280;39608;55.630;37.864;2023-01-30T21:27:11;97572.09;;;-0.65;67.55
53715;BME280;39608;55.630;37.864;2023-01-30T21:32:13;97585.94;;;-0.68;67.51
53715;BME280;39608;55.630;37.864;2023-01-30T21:37:15;97578.22;;;-0.70;67.46
53715;BME280;39608;55.630;37.864;2023-01-30T21:42:36;97584.59;;;-0.71;67.67
53715;BME280;39608;55.630;37.864;2023-01-30T21:47:56;97581.66;;;-0.74;67.18
53715;BME280;39608;55.630;37.864;2023-01-30T21:52:58;97581.94;;;-0.76;68.04
53715;BME280;39608;55.630;37.864;2023-01-30T21:58:02;97578.50;;;-0.71;67.41
53715;BME280;39608;55.630;37.864;2023-01-30T22:03:04;97574.78;;;-0.75;67.76
53715;BME280;39608;55.630;37.864;2023-01-30T22:08:06;97576.88;;;-0.77;68.10
53715;BME280;39608;55.630;37.864;2023-01-30T22:13:09;97578.50;;;-0.81;68.26
53715;BME280;39608;55.630;37.864;2023-01-30T22:18:12;97594.47;;;-0.81;67.82
53715;BME280;39608;55.630;37.864;2023-01-30T22:23:13;97590.47;;;-0.84;68.03
53715;BME280;39608;55.630;37.864;2023-01-30T22:28:17;97594.47;;;-0.76;67.71
53715;BME280;39608;55.630;37.864;2023-01-30T22:33:19;97592.84;;;-0.77;68.19
53715;BME280;39608;55.630;37.864;2023-01-30T22:38:21;97588.34;;;-0.82;68.10
53715;BME280;39608;55.630;37.864;2023-01-30T22:43:25;97581.69;;;-0.79;68.15
53715;BME280;39608;55.630;37.864;2023-01-30T22:48:29;97584.34;;;-0.79;67.79
53715;BME280;39608;55.630;37.864;2023-01-30T22:53:33;97580.88;;;-0.80;68.38
53715;BME280;39608;55.630;37.864;2023-01-30T22:58:37;97575.84;;;-0.81;68.10
53715;BME280;39608;55.630;37.864;2023-01-30T23:03:39;97587.28;;;-0.81;68.08
53715;BME280;39608;55.630;37.864;2023-01-30T23:08:44;97583.31;;;-0.78;68.47
53715;BME280;39608;55.630;37.864;2023-01-30T23:13:50;97585.16;;;-0.79;68.66
53715;BME280;39608;55.630;37.864;2023-01-30T23:18:52;97599.50;;;-0.80;68.01
53715;BME280;39608;55.630;37.864;2023-01-30T23:23:59;97579.56;;;-0.88;68.47
53715;BME280;39608;55.630;37.864;2023-01-30T23:29:05;97590.47;;;-0.84;68.72
53715;BME280;39608;55.630;37.864;2023-01-30T23:34:11;97579.81;;;-0.84;68.50
53715;BME280;39608;55.630;37.864;2023-01-30T23:39:14;97577.97;;;-0.83;68.19
53715;BME280;39608;55.630;37.864;2023-01-30T23:44:17;97580.88;;;-0.80;68.65
53715;BME280;39608;55.630;37.864;2023-01-30T23:49:19;97575.31;;;-0.83;68.64
53715;BME280;39608;55.630;37.864;2023-01-30T23:54:21;97585.97;;;-0.83;68.72
53715;BME280;39608;55.630;37.864;2023-01-30T23:59:24;97579.03;;;-0.79;68.70
